KMCN/MCN METAR and TAF weather

Enter ICAO airport designator
Station Type Date Time Source
KMCN METAR 2021/09/24 04:53 UTC NOAA

KMCN 240453Z AUTO 31003KT 10SM CLR 13/12 A3005 RMK AO2 SLP172 T01280117 $


Station Type Date Time Source
KMCN Decoded METAR 2021/09/24 04:53 UTC NOAA

MIDDLE GEORGIA REGIONAL AIRPORT , GA, United States (KMCN) 32-41N 83-39W 109M
Sep 24, 2021 - 12:53 AM EDT / 2021.09.24 0453 UTC
Wind: from the NW (310 degrees) at 3 MPH (3 KT):0
Visibility: 10 mile(s):0
Sky conditions: clear
Temperature: 55.0 F (12.8 C)
Dew Point: 53.1 F (11.7 C)
Relative Humidity: 93%
Pressure (altimeter): 30.05 in. Hg (1017 hPa)
ob: KMCN 240453Z AUTO 31003KT 10SM CLR 13/12 A3005 RMK AO2 SLP172 T01280117
cycle: 5

Station Type Date Time Source
KMCN TAF 2021/09/24 06:40 UTC NOAA

TAF KMCN 240538Z 2406/2506 31003KT P6SM SKC
FM241400 06005KT P6SM SKC

Example: see airport list